Terminal Aerodrome Forecast
Issued by NWS

Home | Current Version | Previous Version | Text Only | Print | Product List | Glossary Off
Versions: 1 2 3 4 5 6 7 8 9 10 11 12 13

000
FTUS43 KGRB 150325 AAB
TAFRHI
TAF AMD
KRHI 150325Z 1503/1524 06008G15KT 5SM -SHRA BR OVC006
     FM150800 03010G17KT 5SM SHRA OVC008
     FM151100 34016G24KT 5SM SHRA OVC013
     FM151500 31012G19KT P6SM BKN025
     FM151900 31010G17KT P6SM BKN040
     FM152200 29006KT P6SM SCT040=

USA.gov is the U.S. government's official web portal to all federal, state and local government web resources and services.